Time;durP1;ratioP1;P1;durP2;ratioP2;P2;SDS_P1;SDS_P2;PMS_P1;PMS_P2;Temp;Humidity;BMP_temperature;BMP_pressure;BME280_temperature;BME280_humidity;BME280_pressure;Samples;Min_cycle;Max_cycle;Signal;HPM_P1;HPM_P2
2021/07/24 00:01:05;;;;;;;5.30;4.50;;;;;22.60;101221.00;;;;5081052;28;20195;-76
2021/07/24 00:03:33;;;;;;;5.75;4.47;;;;;22.50;101215.00;;;;5074279;28;20214;-76
2021/07/24 00:06:00;;;;;;;7.65;4.57;;;;;22.50;101201.00;;;;5096227;28;20218;-75
2021/07/24 00:08:28;;;;;;;6.05;4.38;;;;;22.50;101216.00;;;;5081836;28;20202;-76
2021/07/24 00:10:56;;;;;;;5.90;5.13;;;;;22.50;101218.00;;;;5095929;28;21091;-76
2021/07/24 00:13:24;;;;;;;6.85;5.10;;;;;22.50;101210.00;;;;5098321;28;20207;-76
2021/07/24 00:15:51;;;;;;;8.13;4.57;;;;;22.50;101212.00;;;;5085612;28;20189;-76
2021/07/24 00:18:19;;;;;;;5.57;4.97;;;;;22.50;101200.00;;;;5072400;28;20195;-76
2021/07/24 00:20:46;;;;;;;7.72;4.50;;;;;22.40;101198.00;;;;5080445;28;20192;-76
2021/07/24 00:23:13;;;;;;;5.97;4.53;;;;;22.40;101194.00;;;;5076708;28;20287;-76
2021/07/24 00:25:41;;;;;;;7.32;5.32;;;;;22.40;101191.00;;;;5072015;28;20259;-77
2021/07/24 00:28:09;;;;;;;7.53;5.32;;;;;22.40;101188.00;;;;5098263;28;20204;-76
2021/07/24 00:30:40;;;;;;;6.85;5.00;;;;;22.40;101192.00;;;;5072064;28;20210;-77
2021/07/24 00:33:08;;;;;;;5.80;4.18;;;;;22.40;101192.00;;;;5089720;28;20198;-77
2021/07/24 00:35:36;;;;;;;6.53;4.88;;;;;22.30;101192.00;;;;5083027;28;20248;-77
2021/07/24 00:38:03;;;;;;;6.43;4.75;;;;;22.30;101184.00;;;;5087188;28;20244;-76
2021/07/24 00:40:36;;;;;;;6.07;4.85;;;;;22.30;101176.00;;;;5080527;28;20198;-77
2021/07/24 00:43:05;;;;;;;6.93;4.80;;;;;22.30;101167.00;;;;5089735;28;20224;-76
2021/07/24 00:45:46;;;;;;;7.22;4.32;;;;;22.20;101168.00;;;;5088632;28;20222;-76
2021/07/24 00:48:18;;;;;;;6.38;4.45;;;;;22.20;101173.00;;;;5075441;28;20609;-76
2021/07/24 00:50:47;;;;;;;5.70;4.25;;;;;22.20;101166.00;;;;5071023;28;20194;-76
2021/07/24 00:53:21;;;;;;;7.32;5.07;;;;;22.20;101159.00;;;;5072101;28;20198;-75
2021/07/24 00:55:49;;;;;;;6.28;5.00;;;;;22.20;101161.00;;;;5082309;28;20398;-76
2021/07/24 00:58:27;;;;;;;7.28;4.75;;;;;22.10;101163.00;;;;5079840;28;20673;-76
2021/07/24 01:00:56;;;;;;;6.38;4.72;;;;;22.20;101161.00;;;;5073643;28;20231;-76
2021/07/24 01:03:23;;;;;;;7.07;4.82;;;;;22.20;101149.00;;;;5074349;28;20206;-76
2021/07/24 01:05:52;;;;;;;7.15;5.78;;;;;22.10;101143.00;;;;5098572;28;20214;-77
2021/07/24 01:08:20;;;;;;;6.43;5.15;;;;;22.10;101148.00;;;;5074572;28;20345;-77
2021/07/24 01:10:48;;;;;;;8.73;5.43;;;;;22.10;101143.00;;;;5071416;28;20245;-77
2021/07/24 01:13:17;;;;;;;6.43;5.03;;;;;22.10;101142.00;;;;5087972;28;20205;-77
2021/07/24 01:15:45;;;;;;;6.38;4.95;;;;;22.10;101134.00;;;;5087472;28;20244;-77
2021/07/24 01:18:14;;;;;;;6.28;5.05;;;;;22.10;101135.00;;;;5075743;28;20206;-76
2021/07/24 01:20:43;;;;;;;7.30;4.95;;;;;22.10;101136.00;;;;5087301;28;20194;-76
2021/07/24 01:23:13;;;;;;;7.47;4.65;;;;;22.00;101123.00;;;;5082686;28;20243;-77
2021/07/24 01:25:45;;;;;;;7.03;4.93;;;;;22.00;101114.00;;;;5070122;28;20237;-77
2021/07/24 01:28:13;;;;;;;7.57;4.82;;;;;22.00;101110.00;;;;5071289;28;20210;-77
2021/07/24 01:30:43;;;;;;;6.57;5.03;;;;;21.90;101111.00;;;;5071038;28;20687;-76
2021/07/24 01:33:10;;;;;;;7.20;5.35;;;;;22.00;101111.00;;;;5088111;28;20202;-77
2021/07/24 01:35:44;;;;;;;7.10;4.93;;;;;21.90;101108.00;;;;5084970;28;20309;-77
2021/07/24 01:38:13;;;;;;;7.13;4.38;;;;;21.90;101108.00;;;;5082556;28;20202;-78
2021/07/24 01:40:40;;;;;;;7.30;4.90;;;;;21.90;101105.00;;;;5096220;28;20213;-78
2021/07/24 01:43:08;;;;;;;9.05;5.03;;;;;21.90;101091.00;;;;5094118;28;20196;-78
2021/07/24 01:45:36;;;;;;;8.18;5.05;;;;;21.90;101078.00;;;;5110657;28;20221;-78
2021/07/24 01:48:07;;;;;;;5.43;4.50;;;;;21.80;101071.00;;;;5081895;28;20206;-76
2021/07/24 01:53:23;;;;;;;6.25;4.72;;;;;21.80;101063.00;;;;5096938;28;20627;-77
2021/07/24 01:55:52;;;;;;;6.55;4.82;;;;;21.80;101056.00;;;;5082911;28;20249;-78
2021/07/24 01:58:25;;;;;;;8.82;5.13;;;;;21.70;101060.00;;;;5081437;28;20194;-79
2021/07/24 02:00:53;;;;;;;8.10;4.20;;;;;21.70;101064.00;;;;5087542;28;20193;-77
2021/07/24 02:03:25;;;;;;;7.47;4.70;;;;;21.70;101060.00;;;;5071685;28;20202;-78
2021/07/24 02:05:53;;;;;;;5.75;4.75;;;;;21.70;101047.00;;;;5070943;28;20225;-77
2021/07/24 02:08:24;;;;;;;7.18;5.35;;;;;21.70;101048.00;;;;5076906;28;20213;-76
2021/07/24 02:10:52;;;;;;;6.95;4.85;;;;;21.70;101050.00;;;;5078684;28;20218;-77
2021/07/24 02:13:21;;;;;;;7.93;5.32;;;;;21.70;101057.00;;;;5098260;28;20194;-77
2021/07/24 02:15:49;;;;;;;7.50;5.20;;;;;21.70;101057.00;;;;5097686;28;20203;-78
2021/07/24 02:18:17;;;;;;;7.57;5.07;;;;;21.60;101053.00;;;;5080072;28;20206;-77
2021/07/24 02:20:47;;;;;;;6.38;4.82;;;;;21.60;101065.00;;;;5085013;28;20191;-77
2021/07/24 02:23:14;;;;;;;6.53;4.60;;;;;21.60;101070.00;;;;5068281;28;20210;-77
2021/07/24 02:25:43;;;;;;;7.55;4.95;;;;;21.60;101074.00;;;;5084476;28;20226;-77
2021/07/24 02:28:10;;;;;;;6.55;5.13;;;;;21.60;101083.00;;;;5079852;28;20202;-77
2021/07/24 02:30:38;;;;;;;6.05;4.45;;;;;21.60;101084.00;;;;5086134;28;20199;-77
2021/07/24 02:33:05;;;;;;;5.57;4.65;;;;;21.60;101070.00;;;;5069623;28;20198;-78
2021/07/24 02:35:33;;;;;;;7.82;5.45;;;;;21.60;101053.00;;;;5070872;28;20256;-77
2021/07/24 02:38:00;;;;;;;7.70;5.03;;;;;21.60;101037.00;;;;5077447;28;20225;-76
2021/07/24 02:40:27;;;;;;;7.03;5.22;;;;;21.60;101031.00;;;;5079173;28;20190;-77
2021/07/24 02:42:56;;;;;;;6.45;4.90;;;;;21.60;101035.00;;;;5090348;28;20190;-78
2021/07/24 02:45:23;;;;;;;9.85;5.70;;;;;21.60;101021.00;;;;5109612;28;20686;-78
2021/07/24 02:47:50;;;;;;;8.10;4.85;;;;;21.50;101010.00;;;;5068877;28;20195;-78
2021/07/24 02:50:18;;;;;;;7.22;5.07;;;;;21.50;101012.00;;;;5069533;28;20190;-78
2021/07/24 02:52:45;;;;;;;7.75;5.18;;;;;21.50;101021.00;;;;5072264;28;20206;-77
2021/07/24 02:55:13;;;;;;;7.63;4.63;;;;;21.50;101009.00;;;;5078403;28;20241;-77
2021/07/24 02:57:40;;;;;;;9.45;5.78;;;;;21.50;101024.00;;;;5074198;28;20897;-78
2021/07/24 03:00:10;;;;;;;7.05;5.32;;;;;21.50;101012.00;;;;5068744;28;20194;-76
2021/07/24 03:02:37;;;;;;;7.07;4.90;;;;;21.50;101003.00;;;;5069100;28;20218;-78
2021/07/24 03:05:05;;;;;;;6.78;4.78;;;;;21.50;100989.00;;;;5069231;28;20210;-78
2021/07/24 03:07:32;;;;;;;7.35;5.15;;;;;21.40;100989.00;;;;5084565;28;20198;-76
2021/07/24 03:09:59;;;;;;;7.00;5.20;;;;;21.40;100989.00;;;;5082670;28;20197;-78
2021/07/24 03:12:27;;;;;;;7.32;4.72;;;;;21.40;100991.00;;;;5096906;28;20616;-77
2021/07/24 03:14:54;;;;;;;7.80;4.97;;;;;21.40;100986.00;;;;5102972;28;20210;-77
2021/07/24 03:17:23;;;;;;;6.57;4.88;;;;;21.40;100988.00;;;;5100487;28;20200;-77
2021/07/24 03:19:51;;;;;;;8.20;5.32;;;;;21.40;100995.00;;;;5088947;28;20247;-78
2021/07/24 03:22:18;;;;;;;6.13;5.05;;;;;21.40;101006.00;;;;5068715;28;20214;-77
2021/07/24 03:24:45;;;;;;;7.32;5.60;;;;;21.40;100997.00;;;;5074810;28;20197;-77
2021/07/24 03:27:12;;;;;;;6.38;4.82;;;;;21.40;100985.00;;;;5097979;28;20233;-77
2021/07/24 03:29:39;;;;;;;5.57;4.15;;;;;21.40;100985.00;;;;5092047;28;20213;-77
2021/07/24 03:32:07;;;;;;;9.98;5.57;;;;;21.40;100984.00;;;;5077856;28;20198;-77
2021/07/24 03:34:36;;;;;;;6.88;4.35;;;;;21.40;100979.00;;;;5088964;28;20702;-78
2021/07/24 03:37:03;;;;;;;6.68;5.30;;;;;21.40;100979.00;;;;5083493;28;20222;-77
2021/07/24 03:39:31;;;;;;;7.45;4.60;;;;;21.30;100977.00;;;;5087949;28;20216;-76
2021/07/24 03:41:58;;;;;;;8.00;5.07;;;;;21.30;100979.00;;;;5077237;28;20209;-77
2021/07/24 03:44:25;;;;;;;9.73;5.30;;;;;21.30;100982.00;;;;5068502;28;20202;-77
2021/07/24 03:46:52;;;;;;;6.20;4.57;;;;;21.30;100982.00;;;;5091140;28;20614;-77
2021/07/24 03:49:19;;;;;;;7.70;5.35;;;;;21.30;100979.00;;;;5089240;28;20190;-78
2021/07/24 03:51:48;;;;;;;7.45;5.05;;;;;21.30;100974.00;;;;5086297;28;20681;-77
2021/07/24 03:54:15;;;;;;;6.78;5.18;;;;;21.30;100950.00;;;;5081176;28;20207;-78
2021/07/24 03:56:42;;;;;;;7.97;5.10;;;;;21.20;100931.00;;;;5068766;28;20206;-77
2021/07/24 03:59:10;;;;;;;5.55;4.43;;;;;21.20;100922.00;;;;5078529;28;20199;-78
2021/07/24 04:01:39;;;;;;;7.40;5.15;;;;;21.20;100912.00;;;;5096211;28;20198;-78
2021/07/24 04:04:07;;;;;;;7.32;4.38;;;;;21.10;100911.00;;;;5075279;28;20251;-76
2021/07/24 04:06:34;;;;;;;9.95;5.05;;;;;21.10;100913.00;;;;5091224;28;20229;-78
2021/07/24 04:09:05;;;;;;;10.25;5.43;;;;;21.10;100917.00;;;;5076974;28;20191;-78
2021/07/24 04:11:33;;;;;;;7.68;5.50;;;;;21.10;100918.00;;;;5067493;28;20195;-78
2021/07/24 04:14:01;;;;;;;7.65;4.93;;;;;21.00;100929.00;;;;5067510;28;20191;-78
2021/07/24 04:16:28;;;;;;;9.80;5.60;;;;;21.00;100932.00;;;;5082926;28;20205;-78
2021/07/24 04:18:56;;;;;;;5.95;4.65;;;;;21.00;100943.00;;;;5085445;28;20221;-78
2021/07/24 04:21:23;;;;;;;7.13;4.70;;;;;21.00;100949.00;;;;5069867;28;20203;-77
2021/07/24 04:23:50;;;;;;;6.68;4.82;;;;;21.00;100958.00;;;;5074135;28;20734;-76
2021/07/24 04:26:19;;;;;;;8.15;5.22;;;;;21.00;100957.00;;;;5073593;28;20218;-78
2021/07/24 04:28:46;;;;;;;7.95;5.20;;;;;21.00;100953.00;;;;5068917;28;20203;-77
2021/07/24 04:31:14;;;;;;;7.47;5.32;;;;;21.10;100967.00;;;;5088849;28;20202;-76
2021/07/24 04:33:42;;;;;;;7.60;5.43;;;;;21.10;100984.00;;;;5087012;28;20775;-77
2021/07/24 04:36:11;;;;;;;8.57;5.30;;;;;21.10;100990.00;;;;5090682;28;20240;-77
2021/07/24 04:38:38;;;;;;;6.57;4.45;;;;;21.20;100987.00;;;;5073463;28;20286;-76
2021/07/24 04:41:05;;;;;;;7.32;5.32;;;;;21.20;100985.00;;;;5067449;28;20909;-77
2021/07/24 04:43:34;;;;;;;6.15;4.65;;;;;21.20;100985.00;;;;5066818;28;20205;-77
2021/07/24 04:46:01;;;;;;;9.15;5.32;;;;;21.30;100982.00;;;;5074011;28;20599;-77
2021/07/24 04:48:28;;;;;;;7.25;5.35;;;;;21.30;100984.00;;;;5090150;28;20194;-77
2021/07/24 04:50:57;;;;;;;6.38;5.00;;;;;21.30;100969.00;;;;5089926;28;20198;-78
2021/07/24 04:53:25;;;;;;;5.97;4.65;;;;;21.40;100973.00;;;;5091804;28;20205;-77
2021/07/24 04:55:53;;;;;;;5.63;4.38;;;;;21.40;100983.00;;;;5086356;28;20281;-77
2021/07/24 04:58:21;;;;;;;6.00;4.55;;;;;21.40;100972.00;;;;5081315;28;20194;-76
2021/07/24 05:00:50;;;;;;;6.40;4.45;;;;;21.40;100961.00;;;;5084828;28;20191;-76
2021/07/24 05:03:18;;;;;;;7.93;4.97;;;;;21.50;100940.00;;;;5084965;28;21123;-77
2021/07/24 05:05:45;;;;;;;7.43;5.25;;;;;21.50;100927.00;;;;5086927;28;20206;-76
2021/07/24 05:08:13;;;;;;;7.70;4.82;;;;;21.50;100925.00;;;;5085389;28;20210;-77
2021/07/24 05:10:41;;;;;;;6.85;4.90;;;;;21.50;100929.00;;;;5090403;28;20665;-77
2021/07/24 05:13:08;;;;;;;6.75;4.97;;;;;21.60;100943.00;;;;5091544;28;20202;-78
2021/07/24 05:15:37;;;;;;;8.07;5.18;;;;;21.60;100950.00;;;;5087786;28;20684;-77
2021/07/24 05:18:06;;;;;;;7.70;4.70;;;;;21.60;100952.00;;;;5076530;28;20194;-77
2021/07/24 05:20:34;;;;;;;8.88;5.10;;;;;21.60;100949.00;;;;5090932;28;20299;-77
2021/07/24 05:23:01;;;;;;;7.20;4.70;;;;;21.70;100946.00;;;;5090516;28;20583;-77
2021/07/24 05:25:29;;;;;;;7.13;5.05;;;;;21.70;100935.00;;;;5097728;28;20195;-77
2021/07/24 05:27:58;;;;;;;6.90;4.82;;;;;21.70;100932.00;;;;5101917;28;20299;-78
2021/07/24 05:30:25;;;;;;;9.40;5.13;;;;;21.80;100932.00;;;;5102387;28;20261;-77
2021/07/24 05:32:52;;;;;;;6.53;5.07;;;;;21.80;100924.00;;;;5070192;28;20240;-78
2021/07/24 05:35:21;;;;;;;8.00;5.30;;;;;21.80;100915.00;;;;5075312;28;20186;-78
2021/07/24 05:37:48;;;;;;;7.38;5.32;;;;;21.80;100918.00;;;;5090290;28;20194;-77
2021/07/24 05:40:16;;;;;;;6.55;4.80;;;;;21.90;100919.00;;;;5090068;28;20202;-77
2021/07/24 05:42:43;;;;;;;7.80;5.15;;;;;21.90;100924.00;;;;5069659;28;20740;-77
2021/07/24 05:45:11;;;;;;;5.38;4.47;;;;;21.90;100925.00;;;;5083847;28;20209;-76
2021/07/24 05:47:39;;;;;;;6.75;4.68;;;;;22.00;100930.00;;;;5089087;28;20226;-77
2021/07/24 05:50:07;;;;;;;8.13;5.60;;;;;22.00;100933.00;;;;5083916;28;20202;-77
2021/07/24 05:52:36;;;;;;;6.50;4.90;;;;;22.00;100932.00;;;;5079338;28;20692;-77
2021/07/24 05:55:03;;;;;;;6.78;5.10;;;;;22.00;100934.00;;;;5069984;28;20575;-77
2021/07/24 05:57:30;;;;;;;6.85;5.30;;;;;22.10;100936.00;;;;5075785;28;20195;-77
2021/07/24 05:59:57;;;;;;;6.18;4.50;;;;;22.20;100929.00;;;;5079729;28;21038;-77
2021/07/24 06:02:25;;;;;;;6.70;4.90;;;;;22.20;100928.00;;;;5081026;28;20199;-77
2021/07/24 06:04:52;;;;;;;7.70;4.60;;;;;22.30;100919.00;;;;5080067;28;20195;-77
2021/07/24 06:07:20;;;;;;;6.63;4.68;;;;;22.30;100913.00;;;;5069538;28;20609;-77
2021/07/24 06:09:48;;;;;;;6.88;4.85;;;;;22.30;100911.00;;;;5071439;28;20203;-78
2021/07/24 06:12:15;;;;;;;8.13;5.22;;;;;22.40;100906.00;;;;5069924;28;20205;-76
2021/07/24 06:14:43;;;;;;;6.72;4.93;;;;;22.50;100908.00;;;;5092270;28;20193;-77
2021/07/24 06:17:10;;;;;;;7.18;5.03;;;;;22.50;100909.00;;;;5093611;28;20210;-76
2021/07/24 06:19:37;;;;;;;7.28;5.32;;;;;22.60;100918.00;;;;5085912;28;20214;-76
2021/07/24 06:22:05;;;;;;;6.30;5.63;;;;;22.70;100916.00;;;;5090050;28;20669;-77
2021/07/24 06:24:32;;;;;;;8.77;5.45;;;;;22.70;100910.00;;;;5080278;28;20694;-77
2021/07/24 06:27:01;;;;;;;7.63;5.57;;;;;22.80;100905.00;;;;5068077;28;20226;-77
2021/07/24 06:29:28;;;;;;;7.30;4.53;;;;;22.90;100901.00;;;;5085075;28;20191;-77
2021/07/24 06:31:55;;;;;;;7.38;5.15;;;;;23.00;100903.00;;;;5079893;28;20241;-77
2021/07/24 06:34:22;;;;;;;7.63;6.10;;;;;23.00;100890.00;;;;5078278;28;20194;-78
2021/07/24 06:36:50;;;;;;;7.53;5.00;;;;;23.10;100892.00;;;;5093339;28;20217;-77
2021/07/24 06:39:17;;;;;;;6.28;4.60;;;;;23.20;100896.00;;;;5085474;28;20199;-77
2021/07/24 06:41:44;;;;;;;6.88;5.25;;;;;23.20;100892.00;;;;5086345;28;21142;-78
2021/07/24 06:44:13;;;;;;;9.63;4.80;;;;;23.30;100886.00;;;;5083936;28;20206;-77
2021/07/24 06:46:40;;;;;;;6.45;4.78;;;;;23.40;100883.00;;;;5069950;28;20276;-78
2021/07/24 06:49:07;;;;;;;5.93;4.53;;;;;23.40;100881.00;;;;5075615;28;20603;-77
2021/07/24 06:51:34;;;;;;;6.75;5.20;;;;;23.50;100880.00;;;;5078848;28;20203;-77
2021/07/24 06:54:02;;;;;;;7.10;4.70;;;;;23.60;100862.00;;;;5096224;28;20217;-77
2021/07/24 06:56:29;;;;;;;6.13;5.00;;;;;23.70;100863.00;;;;5072136;28;20203;-77
2021/07/24 06:58:56;;;;;;;6.00;4.97;;;;;23.70;100862.00;;;;5086310;28;20195;-76
2021/07/24 07:01:24;;;;;;;5.78;4.40;;;;;23.80;100865.00;;;;5080766;28;20240;-77
2021/07/24 07:03:52;;;;;;;5.55;4.10;;;;;23.90;100869.00;;;;5072113;28;20199;-77
2021/07/24 07:06:19;;;;;;;6.68;4.53;;;;;24.00;100869.00;;;;5087585;28;20199;-77
2021/07/24 07:08:46;;;;;;;7.45;5.97;;;;;24.00;100870.00;;;;5091800;28;20194;-78
2021/07/24 07:11:14;;;;;;;7.97;5.65;;;;;24.10;100883.00;;;;5090059;28;20206;-78
2021/07/24 07:13:41;;;;;;;8.38;5.35;;;;;24.10;100878.00;;;;5079953;28;20293;-77
2021/07/24 07:16:09;;;;;;;7.05;5.25;;;;;24.20;100879.00;;;;5088586;28;20210;-78
2021/07/24 07:18:38;;;;;;;6.82;5.22;;;;;24.20;100877.00;;;;5068775;28;20195;-78
2021/07/24 07:21:08;;;;;;;8.20;5.22;;;;;24.20;100872.00;;;;5074488;28;20194;-79
2021/07/24 07:23:35;;;;;;;6.47;4.60;;;;;24.30;100868.00;;;;5068285;28;20202;-78
2021/07/24 07:26:03;;;;;;;6.20;5.30;;;;;24.30;100868.00;;;;5079931;28;20199;-78
2021/07/24 07:28:30;;;;;;;6.50;4.75;;;;;24.40;100869.00;;;;5088860;28;20359;-79
2021/07/24 07:30:57;;;;;;;6.05;4.70;;;;;24.40;100866.00;;;;5075115;28;20199;-79
2021/07/24 07:33:24;;;;;;;6.80;4.43;;;;;24.50;100865.00;;;;5075323;28;20194;-77
2021/07/24 07:35:53;;;;;;;5.65;4.32;;;;;24.50;100868.00;;;;5071652;28;20238;-78
2021/07/24 07:38:20;;;;;;;5.50;4.70;;;;;24.60;100864.00;;;;5077056;28;20198;-78
2021/07/24 07:40:47;;;;;;;6.25;4.40;;;;;24.60;100861.00;;;;5068991;28;20199;-77
2021/07/24 07:43:14;;;;;;;6.80;5.40;;;;;24.70;100860.00;;;;5067923;28;20206;-77
2021/07/24 07:45:42;;;;;;;4.85;4.10;;;;;24.80;100854.00;;;;5068186;28;20199;-77
2021/07/24 07:48:09;;;;;;;6.32;5.60;;;;;24.80;100854.00;;;;5067944;28;20239;-78
2021/07/24 07:50:36;;;;;;;7.45;4.82;;;;;24.90;100843.00;;;;5087235;28;20203;-78
2021/07/24 07:53:05;;;;;;;8.70;5.15;;;;;24.90;100833.00;;;;5081748;28;20194;-78
2021/07/24 07:55:32;;;;;;;5.55;4.40;;;;;25.00;100830.00;;;;5085653;28;20213;-77
2021/07/24 07:58:00;;;;;;;5.38;4.47;;;;;25.10;100824.00;;;;5078612;28;20198;-78
2021/07/24 08:00:27;;;;;;;6.07;4.63;;;;;25.10;100822.00;;;;5068839;28;20214;-78
2021/07/24 08:02:55;;;;;;;5.78;4.72;;;;;25.20;100827.00;;;;5074819;28;20664;-82
2021/07/24 08:05:23;;;;;;;8.68;5.03;;;;;25.20;100821.00;;;;5075498;28;20203;-80
2021/07/24 08:07:50;;;;;;;5.05;4.50;;;;;25.30;100813.00;;;;5075289;28;20735;-78
2021/07/24 08:10:20;;;;;;;6.65;4.30;;;;;25.30;100812.00;;;;5071240;28;20198;-80
2021/07/24 08:12:47;;;;;;;6.32;4.95;;;;;25.40;100809.00;;;;5082387;28;20289;-78
2021/07/24 08:15:15;;;;;;;8.80;6.03;;;;;25.50;100806.00;;;;5069638;28;20203;-78
2021/07/24 08:17:42;;;;;;;7.32;5.57;;;;;25.50;100808.00;;;;5078778;28;20210;-79
2021/07/24 08:20:11;;;;;;;6.90;4.88;;;;;25.60;100801.00;;;;5068159;28;20215;-78
2021/07/24 08:22:39;;;;;;;9.00;4.72;;;;;25.70;100798.00;;;;5089162;28;20210;-78
2021/07/24 08:25:08;;;;;;;9.35;5.75;;;;;25.80;100798.00;;;;5080220;28;20190;-78
2021/07/24 08:27:37;;;;;;;10.13;5.97;;;;;25.90;100796.00;;;;5103318;28;20225;-75
2021/07/24 08:30:05;;;;;;;6.55;5.22;;;;;25.90;100792.00;;;;5090412;28;20205;-77
2021/07/24 08:32:33;;;;;;;6.05;5.18;;;;;26.10;100795.00;;;;5092327;28;20213;-77
2021/07/24 08:35:00;;;;;;;9.68;4.45;;;;;26.10;100790.00;;;;5077713;28;20210;-76
2021/07/24 08:37:27;;;;;;;6.53;5.32;;;;;26.20;100787.00;;;;5085577;28;20233;-76
2021/07/24 08:39:55;;;;;;;7.70;5.20;;;;;26.30;100785.00;;;;5075996;28;20199;-76
2021/07/24 08:42:33;;;;;;;9.15;6.38;;;;;26.20;100784.00;;;;5092639;28;20190;-78
2021/07/24 08:45:01;;;;;;;6.97;5.30;;;;;26.30;100787.00;;;;5084162;28;20206;-76
2021/07/24 08:47:30;;;;;;;6.80;5.32;;;;;26.30;100782.00;;;;5091761;28;20229;-77
2021/07/24 08:49:58;;;;;;;7.40;5.70;;;;;26.40;100787.00;;;;5076447;28;20209;-76
2021/07/24 08:52:29;;;;;;;6.93;5.47;;;;;26.40;100788.00;;;;5089603;28;20195;-75
2021/07/24 08:54:57;;;;;;;13.73;5.63;;;;;26.40;100784.00;;;;5084465;28;20194;-75
2021/07/24 08:57:28;;;;;;;7.45;6.07;;;;;26.40;100777.00;;;;5084091;28;20686;-76
2021/07/24 08:59:57;;;;;;;6.30;4.60;;;;;26.50;100770.00;;;;5082214;28;20724;-76
2021/07/24 09:02:28;;;;;;;7.90;5.28;;;;;26.50;100760.00;;;;5074994;28;20223;-77
2021/07/24 09:04:57;;;;;;;6.70;5.32;;;;;26.50;100754.00;;;;5079424;28;20204;-77
2021/07/24 09:07:28;;;;;;;8.98;5.50;;;;;26.50;100750.00;;;;5077443;28;20395;-78
2021/07/24 09:09:59;;;;;;;7.07;5.35;;;;;26.60;100748.00;;;;5078458;28;20203;-76
2021/07/24 09:12:27;;;;;;;6.05;5.07;;;;;26.60;100766.00;;;;5079704;28;20214;-77
2021/07/24 09:14:54;;;;;;;6.55;5.13;;;;;26.60;100766.00;;;;5072821;28;20202;-77
2021/07/24 09:17:22;;;;;;;6.90;5.47;;;;;26.70;100778.00;;;;5070581;28;20209;-78
2021/07/24 09:19:52;;;;;;;10.10;5.20;;;;;26.70;100777.00;;;;5079163;28;20221;-78
2021/07/24 09:22:26;;;;;;;6.28;5.15;;;;;26.70;100783.00;;;;5075507;28;20206;-77
2021/07/24 09:25:21;;;;;;;6.55;5.18;;;;;26.70;100780.00;;;;5081340;28;20660;-76
2021/07/24 09:27:50;;;;;;;7.05;5.75;;;;;26.80;100770.00;;;;5049832;28;20229;-76
2021/07/24 09:30:33;;;;;;;5.80;4.93;;;;;26.80;100772.00;;;;5080837;28;20584;-77
2021/07/24 09:33:05;;;;;;;5.43;4.72;;;;;26.90;100779.00;;;;5072551;28;20210;-76
2021/07/24 09:35:38;;;;;;;6.38;5.35;;;;;26.90;100784.00;;;;5091968;28;20198;-76
2021/07/24 09:38:06;;;;;;;9.40;6.03;;;;;27.00;100793.00;;;;5074177;28;20202;-77
2021/07/24 09:40:35;;;;;;;9.23;5.72;;;;;27.00;100785.00;;;;5073231;28;20207;-76
2021/07/24 09:43:03;;;;;;;6.35;4.72;;;;;27.10;100785.00;;;;5071141;28;20256;-77
2021/07/24 09:45:30;;;;;;;7.07;5.60;;;;;27.20;100782.00;;;;5079973;28;20231;-76
2021/07/24 09:48:15;;;;;;;7.03;5.32;;;;;27.20;100790.00;;;;5071142;28;20278;-76
2021/07/24 09:50:48;;;;;;;6.30;5.05;;;;;27.30;100786.00;;;;5081386;28;20236;-76
2021/07/24 09:53:15;;;;;;;10.15;5.80;;;;;27.40;100790.00;;;;5080529;28;20226;-77
2021/07/24 09:55:48;;;;;;;7.53;4.90;;;;;27.40;100784.00;;;;5081106;28;20255;-77
2021/07/24 09:58:21;;;;;;;9.30;5.68;;;;;27.40;100787.00;;;;5082703;28;20203;-77
2021/07/24 10:00:49;;;;;;;6.03;4.82;;;;;27.60;100787.00;;;;5071677;28;20187;-76
2021/07/24 10:03:17;;;;;;;8.70;5.05;;;;;27.60;100795.00;;;;5076950;28;20203;-77
2021/07/24 10:05:46;;;;;;;7.18;5.22;;;;;27.70;100792.00;;;;5070606;28;20343;-76
2021/07/24 10:08:15;;;;;;;8.63;5.65;;;;;27.70;100798.00;;;;5074220;28;20229;-77
2021/07/24 10:10:44;;;;;;;6.72;5.97;;;;;27.80;100802.00;;;;5072647;28;20191;-77
2021/07/24 10:13:13;;;;;;;7.25;5.82;;;;;27.80;100803.00;;;;5088698;28;20195;-77
2021/07/24 10:15:43;;;;;;;6.20;5.30;;;;;27.90;100802.00;;;;5085462;28;20210;-77
2021/07/24 10:18:11;;;;;;;5.28;4.78;;;;;27.90;100801.00;;;;5075277;28;20286;-77
2021/07/24 10:20:40;;;;;;;5.57;5.07;;;;;28.00;100799.00;;;;5066817;28;20226;-78
2021/07/24 10:23:10;;;;;;;7.32;5.40;;;;;28.00;100793.00;;;;5067716;28;20203;-78
2021/07/24 10:25:47;;;;;;;8.27;5.63;;;;;28.00;100796.00;;;;5081677;28;20191;-78
2021/07/24 10:28:20;;;;;;;8.27;5.72;;;;;28.10;100794.00;;;;5078692;28;20222;-77
2021/07/24 10:30:49;;;;;;;7.47;5.65;;;;;28.10;100803.00;;;;5087498;28;20194;-78
2021/07/24 10:33:17;;;;;;;9.52;6.97;;;;;28.10;100799.00;;;;5086166;28;20778;-78
2021/07/24 10:35:45;;;;;;;6.88;5.22;;;;;28.20;100812.00;;;;5074877;28;20590;-77
2021/07/24 10:38:56;;;;;;;6.93;5.45;;;;;28.10;100818.00;;;;5084812;28;20201;-77
2021/07/24 10:41:40;;;;;;;6.93;5.82;;;;;28.10;100821.00;;;;5042741;28;20282;-77
2021/07/24 10:44:09;;;;;;;5.78;5.20;;;;;28.30;100823.00;;;;5076526;28;20195;-76
2021/07/24 10:47:19;;;;;;;9.52;5.72;;;;;28.20;100829.00;;;;5071768;28;20199;-77
2021/07/24 10:50:05;;;;;;;7.40;5.68;;;;;28.20;100819.00;;;;5052670;28;20772;-77
2021/07/24 10:53:09;;;;;;;7.03;5.55;;;;;28.20;100827.00;;;;5075324;28;20186;-76
2021/07/24 10:55:42;;;;;;;8.25;5.55;;;;;28.30;100832.00;;;;5083380;28;20709;-77
2021/07/24 10:58:09;;;;;;;6.88;5.72;;;;;28.40;100826.00;;;;5073724;28;20202;-77
2021/07/24 11:00:51;;;;;;;7.63;5.50;;;;;28.40;100827.00;;;;5079791;28;20198;-77
2021/07/24 11:03:37;;;;;;;9.82;5.63;;;;;28.30;100821.00;;;;5081833;28;20195;-78
2021/07/24 11:06:21;;;;;;;6.78;5.55;;;;;28.30;100821.00;;;;5073326;28;20277;-78
2021/07/24 11:09:28;;;;;;;6.13;5.35;;;;;28.30;100818.00;;;;5078945;28;20234;-80
2021/07/24 11:12:08;;;;;;;6.45;5.70;;;;;28.40;100809.00;;;;5068282;28;20199;-80
2021/07/24 11:14:50;;;;;;;7.68;5.72;;;;;28.40;100804.00;;;;5074148;28;20191;-79
2021/07/24 11:17:18;;;;;;;7.68;5.95;;;;;28.50;100806.00;;;;5068575;28;20676;-80
2021/07/24 11:20:04;;;;;;;7.68;6.00;;;;;28.40;100800.00;;;;5068168;28;20222;-80
2021/07/24 11:22:32;;;;;;;9.05;6.00;;;;;28.40;100808.00;;;;5071390;28;20245;-78
2021/07/24 11:25:30;;;;;;;7.82;5.35;;;;;28.30;100796.00;;;;5093704;28;20206;-78
2021/07/24 11:28:00;;;;;;;6.80;5.35;;;;;28.40;100794.00;;;;5074024;28;21058;-77
2021/07/24 11:30:28;;;;;;;7.13;5.78;;;;;28.50;100789.00;;;;5087543;28;20312;-77
2021/07/24 11:32:57;;;;;;;8.48;6.13;;;;;28.50;100790.00;;;;5072920;28;20213;-77
2021/07/24 11:35:30;;;;;;;10.27;7.30;;;;;28.50;100786.00;;;;5071477;28;20225;-77
2021/07/24 11:37:58;;;;;;;7.47;5.97;;;;;28.50;100787.00;;;;5080164;28;20198;-79
2021/07/24 11:40:27;;;;;;;8.13;6.70;;;;;28.50;100786.00;;;;5074989;28;20194;-80
2021/07/24 11:43:04;;;;;;;10.82;5.90;;;;;28.40;100786.00;;;;5073605;28;20285;-80
2021/07/24 11:45:33;;;;;;;8.77;5.90;;;;;28.50;100782.00;;;;5081388;28;20202;-79
2021/07/24 11:48:15;;;;;;;7.53;5.22;;;;;28.30;100783.00;;;;5093897;28;20323;-79
2021/07/24 11:50:44;;;;;;;7.78;6.22;;;;;28.40;100779.00;;;;5085373;28;20202;-79
2021/07/24 11:53:12;;;;;;;6.10;5.25;;;;;28.40;100779.00;;;;5095530;28;20206;-80
2021/07/24 11:55:42;;;;;;;7.80;6.13;;;;;28.40;100783.00;;;;5081191;28;20194;-79
2021/07/24 11:58:12;;;;;;;10.15;5.85;;;;;28.40;100779.00;;;;5076938;28;20241;-79
2021/07/24 12:00:42;;;;;;;7.10;6.00;;;;;28.40;100786.00;;;;5085522;28;20244;-80
2021/07/24 12:03:17;;;;;;;9.95;6.22;;;;;28.30;100785.00;;;;5076035;28;20277;-80
2021/07/24 12:05:45;;;;;;;6.55;4.75;;;;;28.40;100797.00;;;;5085030;28;20259;-78
2021/07/24 12:08:13;;;;;;;6.63;5.40;;;;;28.40;100807.00;;;;5077270;28;20287;-77
2021/07/24 12:10:42;;;;;;;6.10;5.10;;;;;28.30;100806.00;;;;5086810;28;20205;-77
2021/07/24 12:13:12;;;;;;;8.68;5.07;;;;;28.30;100805.00;;;;5075668;28;20281;-78
2021/07/24 12:15:58;;;;;;;7.28;5.97;;;;;28.20;100806.00;;;;5081844;28;20190;-78
2021/07/24 12:18:25;;;;;;;7.60;5.65;;;;;28.30;100809.00;;;;5086368;28;20203;-78
2021/07/24 12:20:53;;;;;;;7.03;5.57;;;;;28.30;100807.00;;;;5078933;28;20211;-78
2021/07/24 12:23:25;;;;;;;5.90;4.82;;;;;28.30;100811.00;;;;5081048;28;20195;-77